sensor_id;sensor_type;location;lat;lon;timestamp;pressure;altitude;pressure_sealevel;temperature;humidity
74794;BME280;63320;50.768;6.724;2023-04-01T00:01:22;98151.69;;;9.76;74.77
74794;BME280;63320;50.768;6.724;2023-04-01T00:03:47;98145.72;;;9.85;74.49
74794;BME280;63320;50.768;6.724;2023-04-01T00:06:14;98146.41;;;9.99;74.00
74794;BME280;63320;50.768;6.724;2023-04-01T00:08:41;98130.44;;;9.91;74.00
74794;BME280;63320;50.768;6.724;2023-04-01T00:11:07;98132.00;;;9.82;74.51
74794;BME280;63320;50.768;6.724;2023-04-01T00:13:32;98149.28;;;9.73;74.49
74794;BME280;63320;50.768;6.724;2023-04-01T00:15:57;98138.34;;;9.79;74.74
74794;BME280;63320;50.768;6.724;2023-04-01T00:18:23;98148.59;;;9.82;74.72
74794;BME280;63320;50.768;6.724;2023-04-01T00:20:50;98136.56;;;9.80;74.45
74794;BME280;63320;50.768;6.724;2023-04-01T00:23:16;98144.03;;;9.73;74.17
74794;BME280;63320;50.768;6.724;2023-04-01T00:25:44;98141.53;;;9.72;74.69
74794;BME280;63320;50.768;6.724;2023-04-01T00:28:09;98138.34;;;9.79;74.52
74794;BME280;63320;50.768;6.724;2023-04-01T00:30:35;98142.84;;;9.77;74.17
74794;BME280;63320;50.768;6.724;2023-04-01T00:33:00;98126.88;;;9.80;74.70
74794;BME280;63320;50.768;6.724;2023-04-01T00:35:26;98144.53;;;9.78;74.61
74794;BME280;63320;50.768;6.724;2023-04-01T00:37:51;98136.66;;;9.78;74.68
74794;BME280;63320;50.768;6.724;2023-04-01T00:40:25;98134.75;;;9.80;74.51
74794;BME280;63320;50.768;6.724;2023-04-01T00:42:52;98124.38;;;9.90;73.91
74794;BME280;63320;50.768;6.724;2023-04-01T00:45:26;98127.19;;;9.98;73.40
74794;BME280;63320;50.768;6.724;2023-04-01T00:47:51;98128.78;;;9.90;73.94
74794;BME280;63320;50.768;6.724;2023-04-01T00:50:17;98134.50;;;9.83;74.20
74794;BME280;63320;50.768;6.724;2023-04-01T00:52:42;98121.00;;;9.88;73.93
74794;BME280;63320;50.768;6.724;2023-04-01T00:55:10;98125.34;;;9.89;74.09
74794;BME280;63320;50.768;6.724;2023-04-01T00:57:39;98128.53;;;9.93;73.81
74794;BME280;63320;50.768;6.724;2023-04-01T01:00:10;98123.91;;;9.85;74.07
74794;BME280;63320;50.768;6.724;2023-04-01T01:02:36;98131.06;;;9.94;73.48
74794;BME280;63320;50.768;6.724;2023-04-01T01:05:01;98126.50;;;9.96;73.61
74794;BME280;63320;50.768;6.724;2023-04-01T01:07:34;98134.75;;;9.92;73.73
74794;BME280;63320;50.768;6.724;2023-04-01T01:10:05;98123.19;;;9.94;73.68
74794;BME280;63320;50.768;6.724;2023-04-01T01:12:40;98120.09;;;9.89;74.07
74794;BME280;63320;50.768;6.724;2023-04-01T01:15:12;98126.75;;;9.82;74.66
74794;BME280;63320;50.768;6.724;2023-04-01T01:17:51;98125.22;;;9.79;74.34
74794;BME280;63320;50.768;6.724;2023-04-01T01:20:42;98123.28;;;9.93;74.10
74794;BME280;63320;50.768;6.724;2023-04-01T01:23:29;98135.56;;;9.92;73.75
74794;BME280;63320;50.768;6.724;2023-04-01T01:26:14;98128.19;;;9.86;73.59
74794;BME280;63320;50.768;6.724;2023-04-01T01:28:47;98109.34;;;9.81;73.86
74794;BME280;63320;50.768;6.724;2023-04-01T01:31:20;98113.75;;;9.80;73.94
74794;BME280;63320;50.768;6.724;2023-04-01T01:33:53;98114.81;;;9.78;73.64
74794;BME280;63320;50.768;6.724;2023-04-01T01:36:26;98122.00;;;9.76;73.76
74794;BME280;63320;50.768;6.724;2023-04-01T01:38:54;98106.25;;;9.76;73.72
74794;BME280;63320;50.768;6.724;2023-04-01T01:41:23;98108.75;;;9.77;73.47
74794;BME280;63320;50.768;6.724;2023-04-01T01:43:51;98121.03;;;9.77;73.82
74794;BME280;63320;50.768;6.724;2023-04-01T01:46:21;98117.31;;;9.68;74.14
74794;BME280;63320;50.768;6.724;2023-04-01T01:48:48;98113.03;;;9.67;74.10
74794;BME280;63320;50.768;6.724;2023-04-01T01:51:15;98112.06;;;9.68;74.28
74794;BME280;63320;50.768;6.724;2023-04-01T01:53:42;98124.13;;;9.71;74.09
74794;BME280;63320;50.768;6.724;2023-04-01T01:56:09;98119.00;;;9.58;74.97
74794;BME280;63320;50.768;6.724;2023-04-01T01:58:36;98120.09;;;9.55;75.15
74794;BME280;63320;50.768;6.724;2023-04-01T02:01:06;98107.09;;;9.54;75.20
74794;BME280;63320;50.768;6.724;2023-04-01T02:03:35;98112.34;;;9.54;75.56
74794;BME280;63320;50.768;6.724;2023-04-01T02:06:04;98122.44;;;9.47;76.01
74794;BME280;63320;50.768;6.724;2023-04-01T02:08:34;98115.81;;;9.54;75.59
74794;BME280;63320;50.768;6.724;2023-04-01T02:11:03;98120.56;;;9.60;75.55
74794;BME280;63320;50.768;6.724;2023-04-01T02:13:33;98114.84;;;9.55;75.84
74794;BME280;63320;50.768;6.724;2023-04-01T02:16:06;98114.09;;;9.42;76.77
74794;BME280;63320;50.768;6.724;2023-04-01T02:18:35;98110.31;;;9.46;76.76
74794;BME280;63320;50.768;6.724;2023-04-01T02:21:03;98120.66;;;9.48;76.45
74794;BME280;63320;50.768;6.724;2023-04-01T02:23:29;98119.84;;;9.36;76.88
74794;BME280;63320;50.768;6.724;2023-04-01T02:25:55;98123.16;;;9.38;77.16
74794;BME280;63320;50.768;6.724;2023-04-01T02:28:23;98112.31;;;9.43;76.41
74794;BME280;63320;50.768;6.724;2023-04-01T02:30:50;98121.84;;;9.44;76.65
74794;BME280;63320;50.768;6.724;2023-04-01T02:33:16;98121.97;;;9.42;76.86
74794;BME280;63320;50.768;6.724;2023-04-01T02:35:42;98105.63;;;9.39;77.12
74794;BME280;63320;50.768;6.724;2023-04-01T02:38:07;98108.16;;;9.40;77.06
74794;BME280;63320;50.768;6.724;2023-04-01T02:40:45;98120.31;;;9.41;76.81
74794;BME280;63320;50.768;6.724;2023-04-01T02:43:10;98124.00;;;9.39;77.23
74794;BME280;63320;50.768;6.724;2023-04-01T02:45:37;98108.63;;;9.34;77.63
74794;BME280;63320;50.768;6.724;2023-04-01T02:48:03;98102.66;;;9.43;77.20
74794;BME280;63320;50.768;6.724;2023-04-01T02:50:28;98093.59;;;9.47;76.64
74794;BME280;63320;50.768;6.724;2023-04-01T02:52:54;98103.16;;;9.59;75.68
74794;BME280;63320;50.768;6.724;2023-04-01T02:55:19;98106.09;;;9.44;76.27
74794;BME280;63320;50.768;6.724;2023-04-01T02:57:44;98097.66;;;9.51;76.01
74794;BME280;63320;50.768;6.724;2023-04-01T03:00:10;98110.06;;;9.49;76.01
74794;BME280;63320;50.768;6.724;2023-04-01T03:02:38;98105.53;;;9.40;75.62
74794;BME280;63320;50.768;6.724;2023-04-01T03:05:04;98104.69;;;9.40;76.14
74794;BME280;63320;50.768;6.724;2023-04-01T03:07:29;98106.09;;;9.44;75.70
74794;BME280;63320;50.768;6.724;2023-04-01T03:09:55;98106.97;;;9.55;75.10
74794;BME280;63320;50.768;6.724;2023-04-01T03:12:20;98098.97;;;9.46;74.71
74794;BME280;63320;50.768;6.724;2023-04-01T03:14:45;98105.19;;;9.45;74.83
74794;BME280;63320;50.768;6.724;2023-04-01T03:17:11;98110.03;;;9.38;75.20
74794;BME280;63320;50.768;6.724;2023-04-01T03:19:37;98107.94;;;9.54;74.75
74794;BME280;63320;50.768;6.724;2023-04-01T03:22:03;98106.84;;;9.46;74.82
74794;BME280;63320;50.768;6.724;2023-04-01T03:24:28;98102.44;;;9.46;74.73
74794;BME280;63320;50.768;6.724;2023-04-01T03:26:53;98108.16;;;9.51;74.51
74794;BME280;63320;50.768;6.724;2023-04-01T03:29:19;98112.09;;;9.46;74.81
74794;BME280;63320;50.768;6.724;2023-04-01T03:31:44;98134.88;;;9.45;74.69
74794;BME280;63320;50.768;6.724;2023-04-01T03:34:10;98125.34;;;9.44;74.75
74794;BME280;63320;50.768;6.724;2023-04-01T03:36:36;98139.03;;;9.37;75.31
74794;BME280;63320;50.768;6.724;2023-04-01T03:39:02;98113.97;;;9.32;75.74
74794;BME280;63320;50.768;6.724;2023-04-01T03:41:27;98116.03;;;9.29;75.89
74794;BME280;63320;50.768;6.724;2023-04-01T03:43:53;98130.06;;;9.28;76.13
74794;BME280;63320;50.768;6.724;2023-04-01T03:46:19;98120.53;;;9.27;76.25
74794;BME280;63320;50.768;6.724;2023-04-01T03:48:44;98115.75;;;9.32;75.78
74794;BME280;63320;50.768;6.724;2023-04-01T03:51:09;98119.00;;;9.24;76.47
74794;BME280;63320;50.768;6.724;2023-04-01T03:53:36;98125.78;;;9.27;76.30
74794;BME280;63320;50.768;6.724;2023-04-01T03:56:04;98125.06;;;9.25;76.79
74794;BME280;63320;50.768;6.724;2023-04-01T03:58:29;98120.16;;;9.20;77.27
74794;BME280;63320;50.768;6.724;2023-04-01T04:00:54;98121.97;;;9.20;77.70
74794;BME280;63320;50.768;6.724;2023-04-01T04:03:20;98115.63;;;9.22;77.37
74794;BME280;63320;50.768;6.724;2023-04-01T04:05:48;98139.84;;;9.15;77.67
74794;BME280;63320;50.768;6.724;2023-04-01T04:08:14;98135.06;;;9.20;77.52
74794;BME280;63320;50.768;6.724;2023-04-01T04:10:41;98132.53;;;9.18;78.23
74794;BME280;63320;50.768;6.724;2023-04-01T04:13:06;98125.88;;;9.14;78.43
74794;BME280;63320;50.768;6.724;2023-04-01T04:15:31;98136.38;;;9.14;78.24
74794;BME280;63320;50.768;6.724;2023-04-01T04:17:57;98132.78;;;9.15;78.29
74794;BME280;63320;50.768;6.724;2023-04-01T04:20:22;98127.69;;;9.25;77.77
74794;BME280;63320;50.768;6.724;2023-04-01T04:22:47;98135.28;;;9.17;78.42
74794;BME280;63320;50.768;6.724;2023-04-01T04:25:13;98129.44;;;9.13;78.62
74794;BME280;63320;50.768;6.724;2023-04-01T04:27:40;98137.56;;;9.10;78.76
74794;BME280;63320;50.768;6.724;2023-04-01T04:30:07;98131.47;;;9.10;78.91
74794;BME280;63320;50.768;6.724;2023-04-01T04:32:32;98133.50;;;9.17;78.61
74794;BME280;63320;50.768;6.724;2023-04-01T04:34:57;98137.31;;;9.13;78.99
74794;BME280;63320;50.768;6.724;2023-04-01T04:37:23;98138.59;;;9.07;79.13
74794;BME280;63320;50.768;6.724;2023-04-01T04:39:49;98132.78;;;9.15;79.22
74794;BME280;63320;50.768;6.724;2023-04-01T04:42:14;98133.84;;;9.13;78.73
74794;BME280;63320;50.768;6.724;2023-04-01T04:44:41;98134.81;;;9.12;79.12
74794;BME280;63320;50.768;6.724;2023-04-01T04:47:06;98141.00;;;9.11;79.26
74794;BME280;63320;50.768;6.724;2023-04-01T04:49:31;98136.03;;;9.19;78.58
74794;BME280;63320;50.768;6.724;2023-04-01T04:51:57;98142.53;;;9.13;78.91
74794;BME280;63320;50.768;6.724;2023-04-01T04:54:22;98135.28;;;9.17;78.85
74794;BME280;63320;50.768;6.724;2023-04-01T04:56:47;98156.59;;;9.12;78.99
74794;BME280;63320;50.768;6.724;2023-04-01T04:59:13;98151.16;;;9.15;78.84
74794;BME280;63320;50.768;6.724;2023-04-01T05:01:40;98154.47;;;9.17;78.62
74794;BME280;63320;50.768;6.724;2023-04-01T05:04:05;98153.31;;;9.21;78.42
74794;BME280;63320;50.768;6.724;2023-04-01T05:06:30;98163.91;;;9.20;78.64
74794;BME280;63320;50.768;6.724;2023-04-01T05:08:55;98159.50;;;9.20;78.26
74794;BME280;63320;50.768;6.724;2023-04-01T05:11:21;98162.34;;;9.17;79.17
74794;BME280;63320;50.768;6.724;2023-04-01T05:13:47;98167.84;;;9.14;79.79
74794;BME280;63320;50.768;6.724;2023-04-01T05:16:14;98171.28;;;9.15;79.92
74794;BME280;63320;50.768;6.724;2023-04-01T05:18:42;98165.31;;;9.13;80.28
74794;BME280;63320;50.768;6.724;2023-04-01T05:21:09;98164.97;;;9.17;80.14
74794;BME280;63320;50.768;6.724;2023-04-01T05:23:35;98166.38;;;9.10;80.49
74794;BME280;63320;50.768;6.724;2023-04-01T05:26:03;98170.69;;;9.11;80.63
74794;BME280;63320;50.768;6.724;2023-04-01T05:28:28;98190.19;;;9.07;80.96
74794;BME280;63320;50.768;6.724;2023-04-01T05:30:53;98180.00;;;9.15;80.52
74794;BME280;63320;50.768;6.724;2023-04-01T05:33:19;98186.63;;;9.08;80.98
74794;BME280;63320;50.768;6.724;2023-04-01T05:35:45;98187.84;;;9.15;80.70
74794;BME280;63320;50.768;6.724;2023-04-01T05:38:11;98189.75;;;9.13;80.59
74794;BME280;63320;50.768;6.724;2023-04-01T05:40:36;98180.69;;;9.17;80.90
74794;BME280;63320;50.768;6.724;2023-04-01T05:43:01;98195.63;;;9.28;80.57
74794;BME280;63320;50.768;6.724;2023-04-01T05:45:27;98192.66;;;9.32;80.28
74794;BME280;63320;50.768;6.724;2023-04-01T05:47:52;98193.47;;;9.22;80.72
74794;BME280;63320;50.768;6.724;2023-04-01T05:50:18;98185.56;;;9.11;81.67
74794;BME280;63320;50.768;6.724;2023-04-01T05:52:44;98188.09;;;9.23;81.43
74794;BME280;63320;50.768;6.724;2023-04-01T05:55:10;98195.84;;;9.14;81.67
74794;BME280;63320;50.768;6.724;2023-04-01T05:57:36;98195.59;;;9.17;81.82
74794;BME280;63320;50.768;6.724;2023-04-01T06:00:02;98200.84;;;9.17;81.78
74794;BME280;63320;50.768;6.724;2023-04-01T06:02:27;98197.38;;;9.16;82.04
74794;BME280;63320;50.768;6.724;2023-04-01T06:04:59;98217.41;;;9.17;81.60
74794;BME280;63320;50.768;6.724;2023-04-01T06:07:27;98209.13;;;9.34;81.23
74794;BME280;63320;50.768;6.724;2023-04-01T06:09:55;98207.53;;;9.21;81.82
74794;BME280;63320;50.768;6.724;2023-04-01T06:12:35;98206.56;;;9.22;81.68
74794;BME280;63320;50.768;6.724;2023-04-01T06:15:13;98201.34;;;9.22;81.76
74794;BME280;63320;50.768;6.724;2023-04-01T06:17:52;98203.88;;;9.34;80.83
74794;BME280;63320;50.768;6.724;2023-04-01T06:20:26;98221.84;;;9.28;80.91
74794;BME280;63320;50.768;6.724;2023-04-01T06:23:13;98212.56;;;9.24;81.28
74794;BME280;63320;50.768;6.724;2023-04-01T06:25:54;98217.09;;;9.33;80.63
74794;BME280;63320;50.768;6.724;2023-04-01T06:28:46;98212.34;;;9.38;80.25
74794;BME280;63320;50.768;6.724;2023-04-01T06:31:24;98217.84;;;9.35;80.20
74794;BME280;63320;50.768;6.724;2023-04-01T06:37:07;98224.75;;;9.36;80.57
74794;BME280;63320;50.768;6.724;2023-04-01T06:39:47;98231.31;;;9.42;80.24
74794;BME280;63320;50.768;6.724;2023-04-01T06:42:33;98224.16;;;9.44;80.84
74794;BME280;63320;50.768;6.724;2023-04-01T06:45:09;98231.09;;;9.45;81.08
74794;BME280;63320;50.768;6.724;2023-04-01T06:47:49;98227.16;;;9.39;81.31
74794;BME280;63320;50.768;6.724;2023-04-01T06:50:23;98237.06;;;9.47;81.34
74794;BME280;63320;50.768;6.724;2023-04-01T06:52:58;98237.03;;;9.36;82.26
74794;BME280;63320;50.768;6.724;2023-04-01T06:55:29;98234.63;;;9.32;82.95
74794;BME280;63320;50.768;6.724;2023-04-01T06:58:00;98238.34;;;9.41;82.53
74794;BME280;63320;50.768;6.724;2023-04-01T07:00:31;98245.09;;;9.32;82.67
74794;BME280;63320;50.768;6.724;2023-04-01T07:03:04;98237.06;;;9.47;82.67
74794;BME280;63320;50.768;6.724;2023-04-01T07:05:32;98234.31;;;9.48;82.55
74794;BME280;63320;50.768;6.724;2023-04-01T07:08:01;98241.13;;;9.51;82.55
74794;BME280;63320;50.768;6.724;2023-04-01T07:10:33;98253.53;;;9.49;82.95
74794;BME280;63320;50.768;6.724;2023-04-01T07:13:04;98247.53;;;9.47;83.49
74794;BME280;63320;50.768;6.724;2023-04-01T07:15:36;98257.28;;;9.33;84.00
74794;BME280;63320;50.768;6.724;2023-04-01T07:18:07;98255.94;;;9.28;84.05
74794;BME280;63320;50.768;6.724;2023-04-01T07:20:36;98253.81;;;9.33;83.12
74794;BME280;63320;50.768;6.724;2023-04-01T07:23:04;98264.78;;;9.38;82.59
74794;BME280;63320;50.768;6.724;2023-04-01T07:25:34;98259.00;;;9.46;82.11
74794;BME280;63320;50.768;6.724;2023-04-01T07:28:05;98264.47;;;9.43;82.72
74794;BME280;63320;50.768;6.724;2023-04-01T07:30:41;98266.28;;;9.53;82.21
74794;BME280;63320;50.768;6.724;2023-04-01T07:33:13;98259.00;;;9.57;82.34
74794;BME280;63320;50.768;6.724;2023-04-01T07:35:46;98268.81;;;9.55;82.56
74794;BME280;63320;50.768;6.724;2023-04-01T07:38:21;98277.50;;;9.55;82.20
74794;BME280;63320;50.768;6.724;2023-04-01T07:40:57;98274.06;;;9.66;82.30
74794;BME280;63320;50.768;6.724;2023-04-01T07:43:39;98285.25;;;9.57;81.24
74794;BME280;63320;50.768;6.724;2023-04-01T07:46:17;98296.72;;;9.67;81.67
74794;BME280;63320;50.768;6.724;2023-04-01T07:48:51;98292.91;;;9.60;81.34
74794;BME280;63320;50.768;6.724;2023-04-01T07:51:23;98284.56;;;9.66;81.86
74794;BME280;63320;50.768;6.724;2023-04-01T07:54:00;98298.75;;;9.64;82.18
74794;BME280;63320;50.768;6.724;2023-04-01T07:56:34;98303.28;;;9.62;82.15
74794;BME280;63320;50.768;6.724;2023-04-01T07:59:11;98299.34;;;9.67;82.23
74794;BME280;63320;50.768;6.724;2023-04-01T08:01:48;98308.91;;;9.68;82.24
74794;BME280;63320;50.768;6.724;2023-04-01T08:04:35;98309.38;;;9.73;81.72
74794;BME280;63320;50.768;6.724;2023-04-01T08:07:07;98301.16;;;9.78;81.98
74794;BME280;63320;50.768;6.724;2023-04-01T08:09:42;98320.50;;;9.77;82.35
74794;BME280;63320;50.768;6.724;2023-04-01T08:12:19;98319.53;;;9.78;82.17
74794;BME280;63320;50.768;6.724;2023-04-01T08:14:55;98330.88;;;9.78;81.88
74794;BME280;63320;50.768;6.724;2023-04-01T08:17:26;98312.84;;;9.74;82.27
74794;BME280;63320;50.768;6.724;2023-04-01T08:19:59;98330.66;;;9.81;82.34
74794;BME280;63320;50.768;6.724;2023-04-01T08:22:34;98332.56;;;9.79;82.04
74794;BME280;63320;50.768;6.724;2023-04-01T08:25:04;98340.88;;;9.73;82.47
74794;BME280;63320;50.768;6.724;2023-04-01T08:27:35;98347.22;;;9.71;82.40
74794;BME280;63320;50.768;6.724;2023-04-01T08:30:06;98351.84;;;9.67;83.05
74794;BME280;63320;50.768;6.724;2023-04-01T08:32:41;98350.03;;;9.68;83.57
74794;BME280;63320;50.768;6.724;2023-04-01T08:35:14;98349.41;;;9.53;83.55
74794;BME280;63320;50.768;6.724;2023-04-01T08:37:44;98354.72;;;9.64;83.95
74794;BME280;63320;50.768;6.724;2023-04-01T08:40:25;98365.88;;;9.55;83.81
74794;BME280;63320;50.768;6.724;2023-04-01T08:43:03;98357.44;;;9.63;83.88
74794;BME280;63320;50.768;6.724;2023-04-01T08:46:06;98360.53;;;9.68;84.00
74794;BME280;63320;50.768;6.724;2023-04-01T08:48:50;98374.00;;;9.63;83.56
74794;BME280;63320;50.768;6.724;2023-04-01T08:51:55;98365.22;;;9.64;84.78
74794;BME280;63320;50.768;6.724;2023-04-01T08:54:37;98348.09;;;9.58;84.70
74794;BME280;63320;50.768;6.724;2023-04-01T08:57:13;98368.72;;;9.52;84.48
74794;BME280;63320;50.768;6.724;2023-04-01T08:59:54;98355.41;;;9.66;84.70
74794;BME280;63320;50.768;6.724;2023-04-01T09:02:42;98393.00;;;9.67;83.90
74794;BME280;63320;50.768;6.724;2023-04-01T09:05:26;98380.50;;;9.70;84.25
74794;BME280;63320;50.768;6.724;2023-04-01T09:08:01;98380.41;;;9.83;84.22
74794;BME280;63320;50.768;6.724;2023-04-01T09:10:47;98382.69;;;9.88;84.25
74794;BME280;63320;50.768;6.724;2023-04-01T09:13:34;98374.84;;;9.99;85.61
74794;BME280;63320;50.768;6.724;2023-04-01T09:16:20;98412.88;;;9.93;84.28
74794;BME280;63320;50.768;6.724;2023-04-01T09:19:12;98391.31;;;9.90;82.76
74794;BME280;63320;50.768;6.724;2023-04-01T09:21:56;98407.97;;;9.89;81.39
74794;BME280;63320;50.768;6.724;2023-04-01T09:24:33;98384.50;;;9.98;81.96
74794;BME280;63320;50.768;6.724;2023-04-01T09:27:05;98398.84;;;9.94;81.99
74794;BME280;63320;50.768;6.724;2023-04-01T09:29:57;98401.41;;;9.83;81.36
74794;BME280;63320;50.768;6.724;2023-04-01T09:32:34;98400.50;;;9.95;82.43
74794;BME280;63320;50.768;6.724;2023-04-01T09:35:20;98411.09;;;9.94;81.82
74794;BME280;63320;50.768;6.724;2023-04-01T09:37:53;98410.81;;;10.09;82.74
74794;BME280;63320;50.768;6.724;2023-04-01T09:40:25;98403.78;;;10.10;83.05
74794;BME280;63320;50.768;6.724;2023-04-01T09:43:06;98417.75;;;10.10;83.02
74794;BME280;63320;50.768;6.724;2023-04-01T09:45:46;98423.94;;;10.09;82.00
74794;BME280;63320;50.768;6.724;2023-04-01T09:48:29;98433.88;;;10.17;82.38
74794;BME280;63320;50.768;6.724;2023-04-01T09:51:05;98441.13;;;10.13;82.13
74794;BME280;63320;50.768;6.724;2023-04-01T09:53:39;98453.38;;;10.02;81.56
74794;BME280;63320;50.768;6.724;2023-04-01T10:05:19;98466.19;;;10.30;79.67
74794;BME280;63320;50.768;6.724;2023-04-01T10:08:12;98458.81;;;10.23;80.56
74794;BME280;63320;50.768;6.724;2023-04-01T10:11:01;98448.28;;;10.47;80.69
74794;BME280;63320;50.768;6.724;2023-04-01T10:13:56;98452.34;;;10.40;79.90
74794;BME280;63320;50.768;6.724;2023-04-01T10:16:48;98480.84;;;10.33;80.16
74794;BME280;63320;50.768;6.724;2023-04-01T10:19:46;98461.50;;;10.34;78.74
74794;BME280;63320;50.768;6.724;2023-04-01T10:22:24;98458.19;;;10.32;78.70
74794;BME280;63320;50.768;6.724;2023-04-01T10:25:21;98465.44;;;10.28;79.08
74794;BME280;63320;50.768;6.724;2023-04-01T10:30:57;98450.56;;;10.40;79.77
74794;BME280;63320;50.768;6.724;2023-04-01T10:33:50;98467.66;;;10.46;79.22
74794;BME280;63320;50.768;6.724;2023-04-01T10:36:47;98476.94;;;10.38;79.70
74794;BME280;63320;50.768;6.724;2023-04-01T10:39:38;98466.19;;;10.30;79.22
74794;BME280;63320;50.768;6.724;2023-04-01T10:42:47;98453.28;;;10.38;80.22
74794;BME280;63320;50.768;6.724;2023-04-01T10:45:48;98461.16;;;10.38;79.56
74794;BME280;63320;50.768;6.724;2023-04-01T10:48:32;98460.47;;;10.48;80.66
74794;BME280;63320;50.768;6.724;2023-04-01T10:51:23;98472.69;;;10.60;81.21
74794;BME280;63320;50.768;6.724;2023-04-01T10:54:17;98479.59;;;10.50;80.38
74794;BME280;63320;50.768;6.724;2023-04-01T10:56:51;98469.59;;;10.66;80.96
74794;BME280;63320;50.768;6.724;2023-04-01T10:59:44;98485.72;;;10.61;80.68
74794;BME280;63320;50.768;6.724;2023-04-01T11:02:56;98486.69;;;10.72;81.54
74794;BME280;63320;50.768;6.724;2023-04-01T11:06:06;98482.47;;;10.58;81.67
74794;BME280;63320;50.768;6.724;2023-04-01T11:09:05;98498.19;;;10.35;81.87
74794;BME280;63320;50.768;6.724;2023-04-01T11:12:15;98488.53;;;10.36;82.08
74794;BME280;63320;50.768;6.724;2023-04-01T11:18:17;98497.47;;;10.33;82.43
74794;BME280;63320;50.768;6.724;2023-04-01T11:23:49;98500.81;;;10.35;81.11
74794;BME280;63320;50.768;6.724;2023-04-01T11:26:22;98506.16;;;10.34;80.56
74794;BME280;63320;50.768;6.724;2023-04-01T11:29:19;98502.28;;;10.40;80.84
74794;BME280;63320;50.768;6.724;2023-04-01T11:31:57;98513.66;;;10.51;80.25
74794;BME280;63320;50.768;6.724;2023-04-01T11:34:43;98508.66;;;10.59;79.71
74794;BME280;63320;50.768;6.724;2023-04-01T11:37:25;98506.28;;;10.68;79.38
74794;BME280;63320;50.768;6.724;2023-04-01T11:39:59;98524.78;;;10.66;80.23
74794;BME280;63320;50.768;6.724;2023-04-01T11:42:35;98512.34;;;10.57;79.54
74794;BME280;63320;50.768;6.724;2023-04-01T11:45:15;98514.06;;;10.80;80.32
74794;BME280;63320;50.768;6.724;2023-04-01T11:47:58;98532.06;;;10.62;80.00
74794;BME280;63320;50.768;6.724;2023-04-01T11:50:42;98525.75;;;10.65;80.34
74794;BME280;63320;50.768;6.724;2023-04-01T11:53:23;98545.09;;;10.64;80.21
74794;BME280;63320;50.768;6.724;2023-04-01T11:55:58;98530.41;;;10.61;80.41
74794;BME280;63320;50.768;6.724;2023-04-01T11:58:41;98552.69;;;10.45;79.58
74794;BME280;63320;50.768;6.724;2023-04-01T12:01:20;98537.91;;;10.55;80.26
74794;BME280;63320;50.768;6.724;2023-04-01T12:07:06;98557.06;;;10.68;81.09
74794;BME280;63320;50.768;6.724;2023-04-01T12:09:44;98547.00;;;10.62;80.97
74794;BME280;63320;50.768;6.724;2023-04-01T12:12:19;98559.38;;;10.49;81.90
74794;BME280;63320;50.768;6.724;2023-04-01T12:14:57;98592.78;;;10.35;81.39
74794;BME280;63320;50.768;6.724;2023-04-01T12:17:31;98562.91;;;10.36;81.72
74794;BME280;63320;50.768;6.724;2023-04-01T12:20:05;98562.75;;;10.27;82.89
74794;BME280;63320;50.768;6.724;2023-04-01T12:22:46;98568.44;;;10.21;83.53
74794;BME280;63320;50.768;6.724;2023-04-01T12:25:26;98570.09;;;10.22;83.83
74794;BME280;63320;50.768;6.724;2023-04-01T12:28:00;98566.84;;;10.18;83.78
74794;BME280;63320;50.768;6.724;2023-04-01T12:30:50;98579.72;;;10.10;83.19
74794;BME280;63320;50.768;6.724;2023-04-01T12:36:16;98602.41;;;10.11;83.51
74794;BME280;63320;50.768;6.724;2023-04-01T12:38:55;98591.16;;;10.09;84.04
74794;BME280;63320;50.768;6.724;2023-04-01T12:41:30;98586.19;;;10.17;83.81
74794;BME280;63320;50.768;6.724;2023-04-01T12:44:11;98588.38;;;10.23;83.25
74794;BME280;63320;50.768;6.724;2023-04-01T12:46:52;98586.84;;;10.45;83.52
74794;BME280;63320;50.768;6.724;2023-04-01T12:49:51;98595.78;;;10.42;83.37
74794;BME280;63320;50.768;6.724;2023-04-01T12:52:26;98599.06;;;10.57;82.06
74794;BME280;63320;50.768;6.724;2023-04-01T12:58:27;98587.03;;;11.01;82.42
74794;BME280;63320;50.768;6.724;2023-04-01T13:04:00;98601.84;;;11.13;80.88
74794;BME280;63320;50.768;6.724;2023-04-01T13:06:38;98590.63;;;11.22;80.28
74794;BME280;63320;50.768;6.724;2023-04-01T13:09:14;98612.72;;;10.97;80.78
74794;BME280;63320;50.768;6.724;2023-04-01T13:11:55;98601.69;;;10.92;80.27
74794;BME280;63320;50.768;6.724;2023-04-01T13:14:35;98609.72;;;11.02;80.64
74794;BME280;63320;50.768;6.724;2023-04-01T13:17:11;98609.94;;;10.87;80.33
74794;BME280;63320;50.768;6.724;2023-04-01T13:19:45;98634.75;;;10.72;80.90
74794;BME280;63320;50.768;6.724;2023-04-01T13:22:17;98606.69;;;10.84;83.00
74794;BME280;63320;50.768;6.724;2023-04-01T13:24:50;98617.50;;;10.68;83.66
74794;BME280;63320;50.768;6.724;2023-04-01T13:27:21;98630.81;;;10.54;84.21
74794;BME280;63320;50.768;6.724;2023-04-01T13:30:00;98619.72;;;10.50;84.97
74794;BME280;63320;50.768;6.724;2023-04-01T13:32:33;98622.28;;;10.98;84.24
74794;BME280;63320;50.768;6.724;2023-04-01T13:35:10;98622.81;;;11.59;81.19
74794;BME280;63320;50.768;6.724;2023-04-01T13:37:52;98628.34;;;11.67;79.86
74794;BME280;63320;50.768;6.724;2023-04-01T13:40:33;98646.56;;;11.93;77.64
74794;BME280;63320;50.768;6.724;2023-04-01T13:43:03;98623.09;;;11.67;78.39
74794;BME280;63320;50.768;6.724;2023-04-01T13:45:38;98623.91;;;11.79;77.38
74794;BME280;63320;50.768;6.724;2023-04-01T13:48:26;98629.44;;;11.87;77.94
74794;BME280;63320;50.768;6.724;2023-04-01T13:51:14;98622.47;;;11.53;77.74
74794;BME280;63320;50.768;6.724;2023-04-01T13:54:09;98646.25;;;11.29;78.37
74794;BME280;63320;50.768;6.724;2023-04-01T13:56:47;98672.16;;;11.00;78.99
74794;BME280;63320;50.768;6.724;2023-04-01T13:59:40;98641.16;;;11.03;79.78
74794;BME280;63320;50.768;6.724;2023-04-01T14:02:24;98659.50;;;11.05;79.17
74794;BME280;63320;50.768;6.724;2023-04-01T14:04:56;98659.69;;;10.91;78.82
74794;BME280;63320;50.768;6.724;2023-04-01T14:07:41;98649.75;;;10.94;79.95
74794;BME280;63320;50.768;6.724;2023-04-01T14:10:19;98664.44;;;10.85;79.65
74794;BME280;63320;50.768;6.724;2023-04-01T14:12:56;98657.50;;;10.84;79.05
74794;BME280;63320;50.768;6.724;2023-04-01T14:15:40;98674.03;;;10.98;79.17
74794;BME280;63320;50.768;6.724;2023-04-01T14:18:24;98650.84;;;11.03;78.30